KTMB/TMB METAR and TAF weather

Enter ICAO airport designator
Station Type Date Time Source
KTMB METAR 2021/09/28 16:53 UTC NOAA

KTMB 281653Z 05006KT 10SM FEW045 31/19 A3000 RMK AO2 SLP158 T03060194


Station Type Date Time Source
KTMB Decoded METAR 2021/09/28 16:53 UTC NOAA

KENDALL-TAMIAMI EXEC AIRPORT , FL, United States (KTMB) 25-39N 080-26W 2M
Sep 28, 2021 - 12:53 PM EDT / 2021.09.28 1653 UTC
Wind: from the NE (050 degrees) at 7 MPH (6 KT):0
Visibility: 10 mile(s):0
Sky conditions: mostly clear
Temperature: 87.1 F (30.6 C)
Dew Point: 66.9 F (19.4 C)
Relative Humidity: 51%
Pressure (altimeter): 30 in. Hg (1015 hPa)
ob: KTMB 281653Z 05006KT 10SM FEW045 31/19 A3000 RMK AO2 SLP158 T03060194
cycle: 17

Station Type Date Time Source
KTMB TAF 2021/09/28 15:36 UTC NOAA

TAF
AMD KTMB 281435Z 2815/2912 06010KT P6SM SCT035
FM290400 VRB05KT P6SM FEW030

Example: see airport list